createdAt,value
2019-02-04T00:07:54.876Z,23.5
2019-02-04T00:17:54.085Z,23.3
2019-02-04T00:27:53.296Z,23.3
2019-02-04T00:37:52.515Z,23.4
2019-02-04T00:47:51.726Z,23.4
2019-02-04T00:57:50.934Z,23.4
2019-02-04T01:07:50.143Z,23.3
2019-02-04T01:17:49.345Z,23.1
2019-02-04T01:27:48.555Z,23.1
2019-02-04T01:37:47.763Z,23.3
2019-02-04T01:47:46.973Z,23.2
2019-02-04T01:57:46.181Z,23.3
2019-02-04T02:07:45.391Z,23.5
2019-02-04T02:17:44.603Z,23.5
2019-02-04T02:27:43.808Z,23.4
2019-02-04T02:37:43.017Z,23.2
2019-02-04T02:47:42.226Z,23.3
2019-02-04T02:57:41.436Z,23.5
2019-02-04T03:07:40.647Z,23.5
2019-02-04T03:17:50.946Z,23.5
2019-02-04T03:27:39.082Z,23.4
2019-02-04T03:37:38.272Z,23.6
2019-02-04T03:47:37.480Z,23.6
2019-02-04T03:57:36.686Z,24.4
2019-02-04T04:07:35.894Z,24.4
2019-02-04T04:17:35.103Z,23.8
2019-02-04T04:27:34.311Z,22.7
2019-02-04T04:37:33.519Z,22.9
2019-02-04T04:47:32.775Z,23.3
2019-02-04T04:57:31.933Z,23.5
2019-02-04T05:07:31.141Z,24.4
2019-02-04T05:17:30.350Z,24.9
2019-02-04T05:27:29.562Z,24.5
2019-02-04T05:37:28.783Z,23.2
2019-02-04T05:47:27.986Z,23
2019-02-04T05:57:27.199Z,23.6
2019-02-04T06:07:26.412Z,23.6
2019-02-04T06:17:25.625Z,24.6
2019-02-04T06:27:24.838Z,23.3
2019-02-04T06:37:24.053Z,23.5
2019-02-04T06:47:23.268Z,23.8
2019-02-04T06:57:22.474Z,23.6
2019-02-04T07:07:21.684Z,24.3
2019-02-04T07:17:20.894Z,24.4
2019-02-04T07:27:22.385Z,23.2
2019-02-04T07:37:19.320Z,23.7
2019-02-04T07:47:18.535Z,23.8
2019-02-04T07:57:17.743Z,23.6
2019-02-04T08:07:16.944Z,24.3
2019-02-04T08:17:16.152Z,24.5
2019-02-04T08:27:15.361Z,24
2019-02-04T08:37:14.574Z,23.9
2019-02-04T08:47:22.304Z,24.8
2019-02-04T08:57:12.989Z,24.6
2019-02-04T09:07:12.199Z,24.2
2019-02-04T09:17:11.410Z,24.3
2019-02-04T09:27:10.613Z,24.5
2019-02-04T09:37:09.824Z,24.4
2019-02-04T09:47:09.029Z,24.6
2019-02-04T09:57:08.245Z,24.8
2019-02-04T10:07:07.454Z,24.6
2019-02-04T10:17:06.722Z,23.9
2019-02-04T10:27:05.875Z,24.5
2019-02-04T10:37:05.123Z,25.7
2019-02-04T10:47:04.293Z,25.6
2019-02-04T10:57:03.505Z,25
2019-02-04T11:07:02.745Z,24.7
